Pottsboro, Texas
Current Conditions -  °F | °C
As of 8:15 PM on Thursday 20 Nov 2014 (Local Time) from KGYI Reporting Station
Clear Clear  
Wind Chill: 59°   Ceiling: Unl
Heat Index: 59°   Visibility: 10mi
Dew Point: 52°   Wind: 8mph
Humidity: 79%   Direction: 110°ESE
Pressure: 30.05"   Gusts: NA
Location:  33.76°N, 96.67°W
Report Text: KGYI 210215Z AUTO 11007KT 10SM CLR 15/11 A3005 RMK AO2 T01480111
Loading
Personal Weather Stations






























Interactive Weather Map New forecast layout! Learn more

10-Day Weather Forecast

Advertisements
Track Severe Weather on mobile